Crestview, FL

11:23 AM CDT on July 05, 2015 (GMT -0500)
Sandy Ridge | | Change Station
CLOSE
Current Station
Personal Weather Station
Location: Crestview, FL
Elevation: 157 ft
Nearby Weather Stations

Elev 157 ft 30.71 °N, 86.58 °W | Updated 1 second ago

Rain
Rain
70.3 °F
Feels Like 70.3 °F
N
0.9
Wind Variable Wind from SE
Gusts 2.0 mph

Today
High -- | Low -- °F
--% Chance of Precip.
Yesterday
High -- | Low -- °F
Precip. -- in
5:48 AM 7:52 PM
Waning Gibbous, 84% visible
Pressure 30.22 in
Visibility 8.0 miles
Clouds Few 400 ft
Mostly Cloudy 9500 ft
Mostly Cloudy 11000 ft
Dew Point 70 °F
Humidity 98%
Rainfall 1.29 in
Snow Depth Not available.
UV 6 out of 12
Pollen .20 out of 12
Air Quality Not available.
Flu Activity Not available.
SPECI KCEW 051617Z AUTO 15003KT 8SM -RA FEW004 BKN095 BKN110 21/21 A3022 RMK AO2 LTG DSNT E TSE1557 P0000 T02110211 $

More Conditions Fewer Conditions

Pressure 30.22 in
Visibility 8.0 miles
Clouds Few 400 ft
Mostly Cloudy 9500 ft
Mostly Cloudy 11000 ft
Dew Point 70 °F
Humidity 98%
Rainfall 1.29 in
Snow Depth Not available.
UV 6 out of 12
Pollen .20 out of 12
Air Quality Not available.
Flu Activity Not available.
SPECI KCEW 051617Z AUTO 15003KT 8SM -RA FEW004 BKN095 BKN110 21/21 A3022 RMK AO2 LTG DSNT E TSE1557 P0000 T02110211 $

More Conditions Fewer Conditions

10-Day Weather Forecast

×

Almanac

Astronomy

Jul. 05, 2015 Rise Set
Actual Time
Civil Twilight
Nautical Twilight
Astronomical Twilight
Moon
Length of Visible Light
Length of Day
Tomorrow will be .
, % of the Moon is Illuminated

Today's Extremes

State Highs State Lows

Community

WunderPhotos

Upload Photos

1,835,302 photos uploaded!

WunderBlogs® & News

Nearby

Air Quality

  Air Quality AQ Index Pollutant
Not available.

Snow Depth

Station Depth Elevation

Earthquake Activity

City Distance Mag. Time & Date
Minimum magnitude displayed is 2.5.

Coastal Water Temperatures

Place Temperature

Stations

Nearby Weather Stations

Station Location Temp. Windchill Dew Point Humidity Wind Precip. Elev Updated Type